Curitiba, Brazil

7:52 PM BRST on November 24, 2014 (GMT -0200)
Xaxim | Change Station
CLOSE
Current Station
Personal Weather Station
Location: Curitiba, PARANá
Elevation: 2976 ft
Nearby Weather Stations

Elev 2976 ft 25.51 °S, 49.28 °W | Updated 3 minutes ago

Mostly Cloudy
Mostly Cloudy
69.8 °F
Feels Like 69.8 °F
N
0.0
Wind Variable Wind from North
Gusts 0.0 mph

Today
High -- | Low -- °F
--% Chance of Precip.
Yesterday
High -- | Low -- °F
Precip. -- in
6:18 AM 7:48 PM
Waxing Crescent, 7% visible
Pressure 30.01 in
Visibility 6.2 miles
Clouds Mostly Cloudy 1000 ft
Dew Point 6 °F
Humidity 43%
Rainfall -999.00 in
Snow Depth Not available.
UV 0.0 out of 12
Pollen Not available.
Air Quality Not available.
Flu Activity Not available.
SPECI SBBI 242130Z 09007KT 9999 BKN010 20/17 Q1016

More Conditions Fewer Conditions

Pressure 30.01 in
Visibility 6.2 miles
Clouds Mostly Cloudy 1000 ft
Dew Point 6 °F
Humidity 43%
Rainfall -999.00 in
Snow Depth Not available.
UV 0.0 out of 12
Pollen Not available.
Air Quality Not available.
Flu Activity Not available.
SPECI SBBI 242130Z 09007KT 9999 BKN010 20/17 Q1016

More Conditions Fewer Conditions

10-Day Weather Forecast

Almanac

Astronomy

Nov. 24, 2014 Rise Set
Actual Time
Civil Twilight
Nautical Twilight
Astronomical Twilight
Moon
Length of Visible Light
Length of Day
Tomorrow will be .
, % of the Moon is Illuminated

Today's Extremes

Country Highs Country Lows

Community

WunderPhotos

Upload Photos

1,773,415 photos uploaded!

WunderBlogs® & News

Nearby

Air Quality

  Air Quality AQ Index Pollutant
Not available.

Snow Depth

Station Depth Elevation

Earthquake Activity

City Distance Mag. Time & Date
Minimum magnitude displayed is 2.5.

Coastal Water Temperatures

Place Temperature

Nearby Weather Stations